Time;durP1;ratioP1;P1;durP2;ratioP2;P2;SDS_P1;SDS_P2;PMS_P1;PMS_P2;Temp;Humidity;BMP_temperature;BMP_pressure;BME280_temperature;BME280_humidity;BME280_pressure;Samples;Min_cycle;Max_cycle;Signal;HPM_P1;HPM_P2
2022/05/18 00:00:19;;;;;;;3.33;2.50;;;15.70;99.90;;;;;;5045168;28;20548;-70
2022/05/18 00:03:09;;;;;;;2.30;2.10;;;15.70;99.90;;;;;;5034585;28;20476;-70
2022/05/18 00:06:00;;;;;;;3.60;2.73;;;15.70;99.90;;;;;;5040392;28;20478;-70
2022/05/18 00:08:48;;;;;;;2.90;2.47;;;15.60;99.90;;;;;;5039096;28;20586;-70
2022/05/18 00:11:36;;;;;;;3.10;2.53;;;15.60;99.90;;;;;;5054857;28;20585;-70
2022/05/18 00:14:26;;;;;;;2.93;2.00;;;15.60;99.90;;;;;;5055738;28;20543;-71
2022/05/18 00:17:14;;;;;;;2.40;2.07;;;15.50;99.90;;;;;;5051735;28;21011;-70
2022/05/18 00:20:03;;;;;;;1.80;1.70;;;15.60;99.90;;;;;;5048399;28;20494;-70
2022/05/18 00:22:53;;;;;;;2.60;2.37;;;15.50;99.90;;;;;;5049249;28;20538;-70
2022/05/18 00:25:42;;;;;;;5.33;2.07;;;15.50;99.90;;;;;;5036351;28;20613;-70
2022/05/18 00:28:32;;;;;;;2.70;1.90;;;15.40;99.90;;;;;;5038428;28;21143;-70
2022/05/18 00:31:22;;;;;;;2.60;1.83;;;15.40;99.90;;;;;;5037912;28;21059;-70
2022/05/18 00:34:11;;;;;;;2.57;2.37;;;15.40;99.90;;;;;;5022617;28;20501;-69
2022/05/18 00:36:59;;;;;;;1.80;1.70;;;15.40;99.90;;;;;;5049793;28;20554;-70
2022/05/18 00:39:47;;;;;;;4.50;1.70;;;15.30;99.90;;;;;;5048213;28;20662;-70
2022/05/18 00:42:36;;;;;;;1.87;1.77;;;15.30;99.90;;;;;;5039931;28;20575;-70
2022/05/18 00:45:24;;;;;;;3.07;1.70;;;15.30;99.90;;;;;;5042012;28;21099;-70
2022/05/18 00:48:15;;;;;;;1.60;1.50;;;15.20;99.90;;;;;;5039255;28;22115;-70
2022/05/18 00:51:07;;;;;;;2.97;1.73;;;15.20;99.90;;;;;;5025952;28;20464;-70
2022/05/18 00:53:59;;;;;;;2.17;1.37;;;15.10;99.90;;;;;;5024171;28;20624;-70
2022/05/18 00:56:54;;;;;;;5.60;1.80;;;15.10;99.90;;;;;;5038169;28;20455;-70
2022/05/18 00:59:47;;;;;;;2.50;1.50;;;15.10;99.90;;;;;;5033020;28;20620;-70
2022/05/18 01:02:39;;;;;;;1.40;1.30;;;15.00;99.90;;;;;;5035769;28;20486;-70
2022/05/18 01:05:32;;;;;;;2.90;1.50;;;15.10;99.90;;;;;;5034605;28;20565;-69
2022/05/18 01:08:30;;;;;;;1.30;1.20;;;15.00;99.90;;;;;;5048831;28;20883;-70
2022/05/18 01:11:19;;;;;;;1.60;1.50;;;15.00;99.90;;;;;;5057371;28;20446;-69
2022/05/18 01:14:12;;;;;;;3.37;2.10;;;14.90;99.90;;;;;;5056187;28;20478;-70
2022/05/18 01:17:00;;;;;;;1.50;1.40;;;14.90;99.90;;;;;;5030557;28;20565;-70
2022/05/18 01:19:51;;;;;;;1.40;1.30;;;14.90;99.90;;;;;;5039602;28;20568;-70
2022/05/18 01:22:48;;;;;;;3.53;1.50;;;14.90;99.90;;;;;;5052865;28;20576;-70
2022/05/18 01:25:52;;;;;;;1.90;1.47;;;14.90;99.90;;;;;;5053677;28;20562;-70
2022/05/18 01:28:45;;;;;;;1.87;1.47;;;14.80;99.90;;;;;;5054053;28;20449;-70
2022/05/18 01:31:51;;;;;;;2.90;1.90;;;14.70;99.90;;;;;;5032479;28;20548;-70
2022/05/18 01:34:42;;;;;;;2.67;1.47;;;14.70;99.90;;;;;;5048393;28;20829;-70
2022/05/18 01:37:30;;;;;;;1.47;1.37;;;14.70;99.90;;;;;;5047770;28;20486;-70
2022/05/18 01:40:26;;;;;;;1.87;1.17;;;14.60;99.90;;;;;;5053689;28;21284;-70
2022/05/18 01:43:17;;;;;;;1.60;1.43;;;14.60;99.90;;;;;;5042293;28;20804;-69
2022/05/18 01:46:09;;;;;;;4.27;1.70;;;14.60;99.90;;;;;;5051758;28;20619;-72
2022/05/18 01:48:58;;;;;;;2.33;1.53;;;14.50;99.90;;;;;;5037058;28;20485;-69
2022/05/18 01:51:51;;;;;;;3.37;1.60;;;14.50;99.90;;;;;;5025657;28;20451;-71
2022/05/18 01:54:40;;;;;;;2.83;1.37;;;14.50;99.90;;;;;;5033721;28;20543;-69
2022/05/18 01:57:28;;;;;;;1.47;1.20;;;14.50;99.90;;;;;;5037317;28;21024;-70
2022/05/18 02:00:17;;;;;;;3.90;1.83;;;14.40;99.90;;;;;;5033400;28;20462;-70
2022/05/18 02:03:07;;;;;;;1.57;1.47;;;14.40;99.90;;;;;;5034015;28;21132;-70
2022/05/18 02:05:55;;;;;;;1.73;1.30;;;14.40;99.90;;;;;;5044597;28;20549;-70
2022/05/18 02:08:43;;;;;;;1.70;1.50;;;14.40;99.90;;;;;;5036445;28;20673;-70
2022/05/18 02:11:34;;;;;;;1.63;1.20;;;14.40;99.90;;;;;;5038961;28;20486;-70
2022/05/18 02:14:23;;;;;;;2.80;1.67;;;14.40;99.90;;;;;;5038453;28;20604;-69
2022/05/18 02:17:11;;;;;;;5.73;1.23;;;14.30;99.90;;;;;;5059385;28;20526;-70
2022/05/18 02:20:01;;;;;;;2.60;1.63;;;14.30;99.90;;;;;;5064920;28;20455;-70
2022/05/18 02:22:51;;;;;;;2.03;1.60;;;14.30;99.90;;;;;;5052397;28;21171;-70
2022/05/18 02:25:39;;;;;;;1.73;1.60;;;14.20;99.90;;;;;;5039369;28;20553;-70
2022/05/18 02:28:28;;;;;;;2.33;1.67;;;14.20;99.90;;;;;;5033960;28;21077;-70
2022/05/18 02:31:16;;;;;;;2.57;1.60;;;14.20;99.90;;;;;;5026651;28;20454;-71
2022/05/18 02:34:04;;;;;;;3.50;1.50;;;14.10;99.90;;;;;;5047635;28;23132;-70
2022/05/18 02:36:54;;;;;;;2.93;1.27;;;14.20;99.90;;;;;;5046823;28;20482;-70
2022/05/18 02:39:42;;;;;;;3.50;1.73;;;14.20;99.90;;;;;;5045947;28;20458;-70
2022/05/18 02:42:30;;;;;;;1.60;1.50;;;14.10;99.90;;;;;;5050875;28;20559;-70
2022/05/18 02:45:18;;;;;;;2.50;1.40;;;14.10;99.90;;;;;;5045399;28;20974;-70
2022/05/18 02:48:08;;;;;;;1.90;1.37;;;14.10;99.90;;;;;;5050142;28;20834;-69
2022/05/18 02:50:56;;;;;;;1.70;1.60;;;14.10;99.90;;;;;;5047598;28;21015;-70
2022/05/18 02:53:46;;;;;;;1.90;1.37;;;14.00;99.90;;;;;;5052650;28;20478;-70
2022/05/18 02:56:33;;;;;;;2.73;1.60;;;14.00;99.90;;;;;;5045238;28;20626;-70
2022/05/18 02:59:21;;;;;;;2.23;1.60;;;14.00;99.90;;;;;;5037759;28;20497;-70
2022/05/18 03:02:09;;;;;;;3.90;1.50;;;14.00;99.90;;;;;;5054013;28;20543;-70
2022/05/18 03:04:58;;;;;;;1.20;1.10;;;14.00;99.90;;;;;;5043777;28;20513;-70
2022/05/18 03:07:46;;;;;;;2.20;1.30;;;14.00;99.90;;;;;;5049519;28;20568;-70
2022/05/18 03:10:36;;;;;;;4.20;1.83;;;14.00;99.90;;;;;;5034915;28;20544;-70
2022/05/18 03:13:24;;;;;;;1.50;1.40;;;13.90;99.90;;;;;;5042551;28;20473;-70
2022/05/18 03:16:12;;;;;;;3.20;2.20;;;13.90;99.90;;;;;;5047601;28;20541;-70
2022/05/18 03:19:01;;;;;;;1.73;1.30;;;13.90;99.90;;;;;;5050026;28;20464;-70
2022/05/18 03:24:54;;;;;;;3.23;1.70;;;13.90;99.90;;;;;;5042351;28;20474;-70
2022/05/18 03:27:44;;;;;;;7.70;1.90;;;13.90;99.90;;;;;;5038037;28;20449;-70
2022/05/18 03:30:32;;;;;;;2.73;1.47;;;13.90;99.90;;;;;;5055183;28;21023;-70
2022/05/18 03:33:22;;;;;;;2.13;1.77;;;13.80;99.90;;;;;;5049246;28;20600;-70
2022/05/18 03:36:12;;;;;;;2.13;1.40;;;13.80;99.90;;;;;;5050715;28;20477;-70
2022/05/18 03:39:00;;;;;;;1.60;1.50;;;13.80;99.90;;;;;;5053981;28;20462;-70
2022/05/18 03:41:48;;;;;;;1.70;1.50;;;13.80;99.90;;;;;;5047051;28;20463;-69
2022/05/18 03:44:38;;;;;;;1.90;1.33;;;13.80;99.90;;;;;;5054815;28;20494;-70
2022/05/18 03:47:26;;;;;;;3.17;1.60;;;13.80;99.90;;;;;;5055275;28;20508;-70
2022/05/18 03:50:14;;;;;;;1.97;1.77;;;13.80;99.90;;;;;;5050135;28;20455;-70
2022/05/18 03:53:02;;;;;;;3.73;1.80;;;13.70;99.90;;;;;;5050016;28;20575;-70
2022/05/18 03:55:50;;;;;;;1.70;1.60;;;13.70;99.90;;;;;;5045930;28;20998;-70
2022/05/18 03:58:39;;;;;;;4.23;1.53;;;13.70;99.90;;;;;;5042130;28;20545;-70
2022/05/18 04:01:28;;;;;;;2.20;2.00;;;13.70;99.90;;;;;;5054096;28;20478;-70
2022/05/18 04:04:17;;;;;;;2.13;1.77;;;13.70;99.90;;;;;;5050976;28;20848;-70
2022/05/18 04:07:05;;;;;;;2.83;2.03;;;13.70;99.90;;;;;;5037313;28;21476;-70
2022/05/18 04:09:54;;;;;;;2.97;1.83;;;13.70;99.90;;;;;;5046150;28;20854;-70
2022/05/18 04:12:43;;;;;;;2.70;1.80;;;13.70;99.90;;;;;;5047587;28;20482;-70
2022/05/18 04:15:31;;;;;;;2.83;1.93;;;13.60;99.90;;;;;;5044897;28;20904;-70
2022/05/18 04:18:22;;;;;;;1.80;1.70;;;13.60;99.90;;;;;;5052302;28;20553;-70
2022/05/18 04:21:10;;;;;;;3.07;1.83;;;13.70;99.90;;;;;;5050394;28;20454;-70
2022/05/18 04:23:58;;;;;;;5.57;2.00;;;13.70;99.90;;;;;;5034873;28;20565;-70
2022/05/18 04:26:46;;;;;;;2.47;2.00;;;13.70;99.90;;;;;;5053199;28;20540;-70
2022/05/18 04:29:35;;;;;;;2.17;1.93;;;13.70;99.90;;;;;;5045673;28;20573;-70
2022/05/18 04:32:25;;;;;;;1.97;1.83;;;13.70;99.90;;;;;;5052918;28;20479;-70
2022/05/18 04:35:18;;;;;;;2.70;1.90;;;13.70;99.90;;;;;;5055563;28;21168;-69
2022/05/18 04:38:07;;;;;;;3.50;2.07;;;13.70;99.90;;;;;;5048166;28;20564;-70
2022/05/18 04:40:55;;;;;;;2.20;1.73;;;13.70;99.90;;;;;;5049083;28;20465;-70
2022/05/18 04:43:43;;;;;;;4.73;2.20;;;13.80;99.90;;;;;;5049887;28;20478;-70
2022/05/18 04:46:32;;;;;;;2.10;1.80;;;13.80;99.90;;;;;;5044039;28;20458;-70
2022/05/18 04:49:20;;;;;;;1.93;1.73;;;13.80;99.90;;;;;;5051583;28;20451;-69
2022/05/18 04:52:09;;;;;;;3.03;2.10;;;13.80;99.90;;;;;;5055630;28;20560;-69
2022/05/18 04:54:57;;;;;;;2.93;1.97;;;13.90;99.90;;;;;;5021004;28;20634;-70
2022/05/18 04:57:46;;;;;;;2.13;1.70;;;14.00;99.90;;;;;;5043502;28;20446;-70
2022/05/18 05:00:34;;;;;;;2.13;2.00;;;14.00;99.90;;;;;;5039495;28;20463;-70
2022/05/18 05:03:22;;;;;;;2.40;2.03;;;14.00;99.90;;;;;;5038493;28;20489;-70
2022/05/18 05:06:12;;;;;;;3.27;2.00;;;14.00;99.90;;;;;;5036698;28;20837;-70
2022/05/18 05:09:01;;;;;;;3.27;2.53;;;14.10;99.90;;;;;;5033951;28;20463;-71
2022/05/18 05:11:49;;;;;;;2.60;1.93;;;14.10;99.90;;;;;;5033183;28;20999;-70
2022/05/18 05:14:38;;;;;;;2.10;2.00;;;14.10;99.90;;;;;;5046856;28;20470;-70
2022/05/18 05:17:27;;;;;;;5.53;2.60;;;14.10;99.90;;;;;;5042252;28;20574;-70
2022/05/18 05:20:15;;;;;;;2.50;2.03;;;14.20;99.90;;;;;;5044763;28;20973;-70
2022/05/18 05:23:03;;;;;;;2.63;2.20;;;14.20;99.90;;;;;;5047830;28;20505;-70
2022/05/18 05:25:53;;;;;;;5.53;2.40;;;14.20;99.90;;;;;;5043198;28;20470;-70
2022/05/18 05:28:41;;;;;;;2.23;2.03;;;14.30;99.90;;;;;;5052865;28;20465;-70
2022/05/18 05:31:29;;;;;;;3.80;2.20;;;14.30;99.90;;;;;;5043641;28;20582;-71
2022/05/18 05:34:17;;;;;;;2.70;2.50;;;14.40;99.90;;;;;;5033925;28;20531;-70
2022/05/18 05:37:06;;;;;;;3.57;2.40;;;14.40;99.90;;;;;;5031183;28;20525;-70
2022/05/18 05:39:55;;;;;;;3.27;2.37;;;14.40;99.90;;;;;;5044469;28;20889;-70
2022/05/18 05:42:44;;;;;;;2.90;1.97;;;14.50;99.90;;;;;;5053500;28;20549;-70
2022/05/18 05:45:32;;;;;;;2.60;2.40;;;14.50;99.90;;;;;;5053916;28;20576;-70
2022/05/18 05:48:20;;;;;;;3.30;3.00;;;14.60;99.90;;;;;;5056319;28;20455;-70
2022/05/18 05:51:12;;;;;;;6.63;2.77;;;14.70;99.90;;;;;;5056034;28;20486;-70
2022/05/18 05:54:00;;;;;;;4.40;3.00;;;14.80;99.90;;;;;;5055242;28;20505;-71
2022/05/18 05:56:48;;;;;;;5.37;2.70;;;14.80;99.90;;;;;;5055712;28;20959;-70
2022/05/18 05:59:38;;;;;;;4.33;2.90;;;14.90;99.90;;;;;;5056017;28;20604;-71
2022/05/18 06:02:26;;;;;;;4.17;3.33;;;15.00;99.90;;;;;;5057803;28;20474;-70
2022/05/18 06:05:14;;;;;;;3.03;2.80;;;15.10;99.90;;;;;;5058437;28;20502;-70
2022/05/18 06:08:02;;;;;;;3.03;2.73;;;15.20;99.90;;;;;;5067424;28;21155;-70
2022/05/18 06:10:51;;;;;;;3.57;3.27;;;15.20;99.90;;;;;;5053610;28;20959;-70
2022/05/18 06:13:39;;;;;;;3.63;2.90;;;15.30;99.90;;;;;;5055272;28;20487;-70
2022/05/18 06:16:28;;;;;;;3.90;3.60;;;15.40;99.90;;;;;;5053100;28;21066;-70
2022/05/18 06:19:18;;;;;;;3.70;3.30;;;15.40;99.90;;;;;;5048000;28;20468;-70
2022/05/18 06:22:06;;;;;;;4.80;3.47;;;15.40;99.90;;;;;;5052185;28;20809;-70
2022/05/18 06:24:54;;;;;;;3.83;3.53;;;15.40;99.90;;;;;;5053761;28;20544;-70
2022/05/18 06:27:43;;;;;;;3.97;3.60;;;15.40;99.90;;;;;;5056114;28;20663;-70
2022/05/18 06:30:31;;;;;;;5.50;3.50;;;15.40;99.90;;;;;;5058366;28;20555;-70
2022/05/18 06:33:21;;;;;;;4.43;4.10;;;15.50;99.90;;;;;;5058350;28;20470;-70
2022/05/18 06:36:09;;;;;;;4.63;4.30;;;15.50;99.90;;;;;;5057774;28;20512;-71
2022/05/18 06:38:57;;;;;;;4.43;4.10;;;15.60;99.90;;;;;;5056965;28;20544;-70
2022/05/18 06:41:51;;;;;;;4.77;4.37;;;15.70;99.90;;;;;;5056936;28;20468;-70
2022/05/18 06:44:39;;;;;;;6.40;4.60;;;15.70;99.90;;;;;;5060697;28;20474;-70
2022/05/18 06:47:30;;;;;;;6.17;4.70;;;15.80;99.90;;;;;;5055705;28;20451;-71
2022/05/18 06:50:19;;;;;;;5.00;4.50;;;15.80;99.90;;;;;;5056544;28;20458;-70
2022/05/18 06:53:07;;;;;;;5.60;5.03;;;15.90;99.90;;;;;;5059636;28;20532;-70
2022/05/18 06:55:55;;;;;;;5.40;4.87;;;15.90;99.90;;;;;;5070794;28;20488;-71
2022/05/18 06:58:53;;;;;;;5.20;4.70;;;16.00;99.90;;;;;;5079732;28;20454;-74
2022/05/18 07:01:42;;;;;;;5.00;4.60;;;16.00;99.90;;;;;;5079453;28;20461;-70
2022/05/18 07:04:31;;;;;;;5.90;5.00;;;16.00;99.90;;;;;;5077606;28;20473;-70
2022/05/18 07:07:20;;;;;;;4.80;4.40;;;16.10;99.90;;;;;;5080565;28;20977;-70
2022/05/18 07:10:09;;;;;;;5.73;5.23;;;16.20;99.90;;;;;;5077016;28;20478;-71
2022/05/18 07:12:57;;;;;;;5.57;5.07;;;16.30;99.90;;;;;;5062623;28;20477;-70
2022/05/18 07:15:46;;;;;;;6.07;5.50;;;16.30;99.90;;;;;;5056972;28;20587;-70
2022/05/18 07:18:35;;;;;;;6.00;5.37;;;16.30;99.90;;;;;;5060673;28;20833;-70
2022/05/18 07:21:25;;;;;;;5.50;5.00;;;16.30;99.90;;;;;;5059919;28;20476;-71
2022/05/18 07:24:15;;;;;;;5.93;5.33;;;16.40;99.90;;;;;;5057575;28;20532;-70
2022/05/18 07:27:03;;;;;;;8.07;6.03;;;16.40;99.90;;;;;;5058299;28;20454;-70
2022/05/18 07:29:51;;;;;;;7.73;6.10;;;16.40;99.90;;;;;;5059115;28;20591;-70
2022/05/18 07:32:40;;;;;;;6.03;5.53;;;16.50;99.90;;;;;;5061395;28;20467;-70
2022/05/18 07:35:28;;;;;;;6.30;5.50;;;16.50;99.90;;;;;;5066913;28;20480;-71
2022/05/18 07:38:18;;;;;;;6.23;5.70;;;16.50;99.90;;;;;;5068379;28;20525;-70
2022/05/18 07:41:26;;;;;;;6.67;6.17;;;16.50;99.90;;;;;;5053057;28;20460;-71
2022/05/18 07:44:14;;;;;;;7.40;5.87;;;16.50;99.90;;;;;;5052743;28;20490;-70
2022/05/18 07:47:05;;;;;;;6.23;5.73;;;16.50;99.90;;;;;;5056190;28;20545;-70
2022/05/18 07:49:53;;;;;;;6.60;6.13;;;16.60;99.90;;;;;;5058219;28;20879;-70
2022/05/18 07:52:41;;;;;;;6.60;6.10;;;16.60;99.90;;;;;;5053877;28;20654;-70
2022/05/18 07:55:29;;;;;;;6.70;5.70;;;16.60;99.90;;;;;;5058272;28;20903;-70
2022/05/18 07:58:20;;;;;;;7.63;5.53;;;16.60;99.90;;;;;;5055089;28;20466;-70
2022/05/18 08:01:08;;;;;;;6.27;5.73;;;16.70;99.90;;;;;;5055339;28;20539;-70
2022/05/18 08:03:57;;;;;;;6.37;5.87;;;16.70;99.90;;;;;;5057310;28;21070;-70
2022/05/18 08:06:45;;;;;;;6.30;5.80;;;16.70;99.90;;;;;;5059721;28;20477;-70
2022/05/18 08:15:51;;;;;;;6.87;6.27;;;16.80;99.90;;;;;;5054319;28;20556;-70
2022/05/18 08:18:39;;;;;;;6.40;5.90;;;16.80;99.90;;;;;;5055845;28;20461;-70
2022/05/18 08:21:28;;;;;;;6.83;6.20;;;16.80;99.90;;;;;;5055629;28;20605;-71
2022/05/18 08:24:16;;;;;;;9.20;6.20;;;16.90;99.90;;;;;;5055103;28;20506;-70
2022/05/18 08:27:05;;;;;;;6.23;5.80;;;17.00;99.90;;;;;;5056053;28;20446;-70
2022/05/18 08:30:00;;;;;;;9.50;6.43;;;17.00;99.90;;;;;;5055765;28;20621;-70
2022/05/18 08:32:51;;;;;;;7.30;5.80;;;17.10;99.90;;;;;;5057557;28;20471;-70
2022/05/18 08:35:43;;;;;;;6.17;5.67;;;17.20;99.90;;;;;;5055561;28;20478;-70
2022/05/18 08:38:32;;;;;;;6.47;5.87;;;17.30;99.90;;;;;;5051515;28;20564;-70
2022/05/18 08:41:22;;;;;;;6.37;5.87;;;17.50;99.90;;;;;;5048971;28;20537;-70
2022/05/18 08:44:18;;;;;;;7.17;6.50;;;17.60;99.90;;;;;;5053919;28;20486;-70
2022/05/18 08:47:11;;;;;;;7.70;7.10;;;17.70;99.90;;;;;;5051525;28;20559;-70
2022/05/18 08:50:03;;;;;;;6.60;6.00;;;17.80;99.90;;;;;;5054827;28;20504;-70
2022/05/18 08:53:02;;;;;;;6.37;5.87;;;17.90;99.90;;;;;;5054104;28;20463;-70
2022/05/18 08:56:01;;;;;;;7.33;6.73;;;18.00;99.90;;;;;;5050588;28;20529;-70
2022/05/18 08:58:51;;;;;;;7.50;6.90;;;18.20;99.90;;;;;;5057473;28;20573;-70
2022/05/18 09:01:42;;;;;;;8.83;8.03;;;18.30;99.90;;;;;;5053365;28;20563;-70
2022/05/18 09:04:45;;;;;;;8.87;8.17;;;18.40;99.90;;;;;;5048373;28;20479;-69
2022/05/18 09:08:02;;;;;;;8.50;7.90;;;18.50;99.90;;;;;;5054205;28;20489;-70
2022/05/18 09:10:58;;;;;;;8.27;7.63;;;18.60;99.90;;;;;;5050563;28;20500;-70
2022/05/18 09:13:49;;;;;;;8.63;7.93;;;18.70;99.90;;;;;;5054791;28;20479;-70
2022/05/18 09:16:44;;;;;;;8.03;7.33;;;18.80;99.90;;;;;;5050326;28;21159;-70
2022/05/18 09:19:39;;;;;;;7.93;7.20;;;18.90;99.90;;;;;;5054666;28;20600;-70
2022/05/18 09:22:39;;;;;;;8.63;7.83;;;19.10;99.90;;;;;;5050872;28;20888;-70
2022/05/18 09:25:38;;;;;;;9.57;8.90;;;19.20;99.90;;;;;;5049801;28;20572;-70
2022/05/18 09:28:41;;;;;;;9.07;8.30;;;19.30;99.90;;;;;;5056032;28;20500;-70
2022/05/18 09:31:43;;;;;;;8.87;8.17;;;19.50;99.90;;;;;;5051920;28;20454;-70
2022/05/18 09:34:51;;;;;;;9.50;8.70;;;19.50;99.90;;;;;;5052486;28;20692;-71
2022/05/18 09:37:45;;;;;;;9.60;8.80;;;19.70;99.90;;;;;;5052682;28;20612;-70
2022/05/18 09:40:41;;;;;;;10.27;9.47;;;19.80;99.90;;;;;;5052229;28;20601;-70
2022/05/18 09:43:38;;;;;;;9.57;8.77;;;19.90;99.90;;;;;;5063492;28;20482;-71
2022/05/18 09:46:29;;;;;;;10.63;9.80;;;20.00;99.90;;;;;;5060899;28;20556;-71
2022/05/18 09:49:23;;;;;;;10.80;9.90;;;20.10;99.90;;;;;;5054698;28;20474;-71
2022/05/18 09:52:13;;;;;;;10.43;9.73;;;20.20;99.90;;;;;;5051337;28;20558;-70
2022/05/18 09:55:05;;;;;;;9.60;8.90;;;20.30;99.90;;;;;;5052046;28;20469;-71
2022/05/18 09:58:01;;;;;;;10.33;9.43;;;20.40;99.90;;;;;;5055164;28;20544;-70
2022/05/18 10:07:26;;;;;;;10.00;9.30;;;20.50;99.90;;;;;;5055214;28;20446;-71
2022/05/18 10:07:30;;;;;;;10.77;9.87;;;20.70;99.90;;;;;;5043172;28;20461;-71
2022/05/18 10:10:23;;;;;;;9.77;9.07;;;20.80;99.90;;;;;;5053534;28;20909;-70
2022/05/18 10:13:15;;;;;;;11.13;10.33;;;20.90;99.90;;;;;;5052959;28;20569;-73
2022/05/18 10:16:34;;;;;;;11.77;10.77;;;21.00;99.90;;;;;;5053032;28;20441;-71
2022/05/18 10:19:29;;;;;;;11.33;10.33;;;21.10;99.90;;;;;;5051619;28;20826;-70
2022/05/18 10:22:21;;;;;;;10.63;9.80;;;21.10;99.90;;;;;;5049731;28;20472;-71
2022/05/18 10:25:13;;;;;;;10.43;9.57;;;21.20;99.90;;;;;;5044646;28;20525;-70
2022/05/18 10:28:10;;;;;;;11.60;10.70;;;21.30;99.90;;;;;;5053588;28;20692;-71
2022/05/18 10:31:03;;;;;;;10.07;9.47;;;21.40;99.90;;;;;;5049787;28;20545;-71
2022/05/18 10:33:51;;;;;;;11.53;10.73;;;21.50;99.90;;;;;;5054100;28;20960;-70
2022/05/18 10:36:43;;;;;;;12.30;11.20;;;21.50;99.90;;;;;;5049929;28;20529;-71
2022/05/18 10:39:37;;;;;;;10.33;9.30;;;21.70;99.90;;;;;;5044769;28;20474;-70
2022/05/18 10:42:29;;;;;;;11.93;10.93;;;21.70;99.90;;;;;;5053362;28;20558;-71
2022/05/18 10:45:32;;;;;;;10.97;10.17;;;21.80;99.90;;;;;;5049879;28;20571;-71
2022/05/18 10:48:24;;;;;;;12.23;11.20;;;21.90;99.90;;;;;;5047327;28;20536;-71
2022/05/18 10:51:14;;;;;;;10.70;9.80;;;22.00;99.90;;;;;;5051641;28;21092;-72
2022/05/18 10:54:15;;;;;;;10.40;9.70;;;22.10;99.90;;;;;;5048014;28;20490;-71
2022/05/18 10:57:12;;;;;;;11.17;10.37;;;22.20;99.90;;;;;;5061139;28;20454;-71
2022/05/18 11:00:07;;;;;;;14.63;11.30;;;22.30;99.90;;;;;;5053228;28;20478;-71
2022/05/18 11:03:01;;;;;;;13.10;12.07;;;22.40;99.90;;;;;;5054002;28;20555;-71
2022/05/18 11:05:58;;;;;;;11.17;10.27;;;22.50;99.90;;;;;;5049885;28;20586;-71
2022/05/18 11:08:47;;;;;;;11.73;10.73;;;22.60;99.90;;;;;;5050879;28;20465;-72
2022/05/18 11:11:58;;;;;;;10.73;10.03;;;22.70;99.90;;;;;;5053568;28;20462;-71
2022/05/18 11:14:51;;;;;;;11.80;10.80;;;22.90;99.90;;;;;;5054941;28;20477;-73
2022/05/18 11:17:57;;;;;;;10.73;10.03;;;23.00;99.90;;;;;;5052574;28;20563;-73
2022/05/18 11:20:58;;;;;;;12.33;11.53;;;23.10;99.90;;;;;;5048215;28;20557;-71
2022/05/18 11:23:54;;;;;;;12.00;11.07;;;23.30;99.90;;;;;;5045601;28;20851;-71
2022/05/18 11:26:56;;;;;;;12.07;11.13;;;23.40;99.90;;;;;;5043219;28;20545;-71
2022/05/18 11:29:54;;;;;;;11.73;10.83;;;23.50;99.90;;;;;;5043162;28;20868;-71
2022/05/18 11:32:58;;;;;;;11.13;10.43;;;23.60;99.90;;;;;;5046050;28;20645;-72
2022/05/18 11:35:56;;;;;;;12.17;11.23;;;23.80;99.90;;;;;;5051605;28;20621;-71
2022/05/18 11:39:02;;;;;;;11.80;10.93;;;23.90;99.90;;;;;;5053446;28;20482;-71
2022/05/18 11:42:02;;;;;;;13.40;12.50;;;24.00;99.90;;;;;;5057673;28;20569;-71
2022/05/18 11:44:59;;;;;;;12.07;11.17;;;24.10;99.90;;;;;;5065166;28;20524;-71
2022/05/18 11:48:01;;;;;;;11.70;10.90;;;24.20;99.90;;;;;;5059413;28;20541;-71
2022/05/18 11:51:00;;;;;;;12.60;11.70;;;24.30;99.90;;;;;;5045508;28;20563;-72
2022/05/18 11:53:57;;;;;;;11.30;10.60;;;24.40;99.90;;;;;;5053886;28;20847;-72
2022/05/18 11:56:51;;;;;;;11.23;10.53;;;24.50;99.90;;;;;;5047524;28;20967;-71
2022/05/18 11:59:57;;;;;;;12.23;11.23;;;24.60;99.90;;;;;;5049500;28;20893;-71
2022/05/18 12:03:13;;;;;;;12.27;11.37;;;24.70;99.90;;;;;;5047231;28;20597;-72
2022/05/18 12:06:18;;;;;;;11.57;10.67;;;24.90;99.90;;;;;;5058459;28;20463;-71
2022/05/18 12:09:25;;;;;;;11.40;10.60;;;24.90;99.90;;;;;;5054962;28;20462;-71
2022/05/18 12:12:22;;;;;;;11.00;10.10;;;25.10;99.90;;;;;;5053083;28;20467;-70
2022/05/18 12:15:17;;;;;;;12.67;11.67;;;25.20;99.90;;;;;;5051464;28;20522;-70
2022/05/18 12:18:10;;;;;;;11.70;10.90;;;25.30;99.90;;;;;;5049218;28;20521;-70
2022/05/18 12:21:03;;;;;;;11.20;10.50;;;25.40;99.90;;;;;;5051103;28;20458;-72
2022/05/18 12:23:55;;;;;;;10.80;10.10;;;25.50;99.90;;;;;;5051381;28;20595;-71
2022/05/18 12:26:51;;;;;;;11.27;10.50;;;25.60;99.90;;;;;;5051928;28;20712;-71
2022/05/18 12:29:41;;;;;;;11.90;10.90;;;25.80;99.90;;;;;;5048128;28;20545;-70
2022/05/18 12:32:30;;;;;;;10.43;9.80;;;25.90;99.90;;;;;;5048467;28;20462;-71
2022/05/18 12:35:24;;;;;;;10.40;9.70;;;26.10;99.90;;;;;;5051499;28;20513;-71
2022/05/18 12:38:22;;;;;;;9.90;9.20;;;26.20;99.90;;;;;;5056208;28;20915;-71
2022/05/18 12:41:14;;;;;;;10.43;9.50;;;26.40;99.90;;;;;;5044645;28;20515;-71
2022/05/18 12:44:09;;;;;;;9.23;8.53;;;26.40;99.90;;;;;;5041651;28;20648;-71
2022/05/18 12:47:03;;;;;;;10.47;9.77;;;26.50;99.90;;;;;;5045146;28;20445;-72
2022/05/18 12:49:58;;;;;;;9.50;8.70;;;26.60;99.90;;;;;;5046988;28;20477;-71
2022/05/18 12:52:53;;;;;;;9.63;8.93;;;26.70;99.90;;;;;;5049473;28;20680;-71
2022/05/18 12:55:44;;;;;;;9.47;8.67;;;26.80;99.90;;;;;;5045988;28;20522;-71
2022/05/18 12:58:36;;;;;;;8.83;8.20;;;26.90;99.90;;;;;;5047885;28;20577;-71
2022/05/18 13:01:30;;;;;;;9.23;8.60;;;27.10;99.90;;;;;;5048583;28;20926;-71
2022/05/18 13:04:42;;;;;;;8.20;7.70;;;27.10;99.90;;;;;;5042532;28;20988;-71
2022/05/18 13:07:33;;;;;;;8.60;8.10;;;27.30;99.90;;;;;;5044242;28;20478;-71
2022/05/18 13:10:28;;;;;;;8.43;7.73;;;27.40;99.90;;;;;;5046443;28;20459;-71
2022/05/18 13:13:26;;;;;;;8.47;7.77;;;27.50;99.90;;;;;;5040032;28;20539;-71
2022/05/18 13:16:14;;;;;;;8.80;7.97;;;27.50;99.90;;;;;;5054344;28;20458;-71
2022/05/18 13:19:18;;;;;;;7.67;7.17;;;27.70;99.90;;;;;;5040228;28;21686;-72
2022/05/18 13:22:25;;;;;;;8.50;7.77;;;27.80;99.90;;;;;;5044739;28;20506;-72
2022/05/18 13:25:13;;;;;;;8.67;8.07;;;27.90;99.90;;;;;;5042158;28;20902;-69
2022/05/18 13:28:05;;;;;;;8.33;7.63;;;28.00;99.90;;;;;;5045171;28;20462;-72
2022/05/18 13:30:56;;;;;;;7.23;6.83;;;28.10;99.90;;;;;;5050174;28;20460;-72
2022/05/18 13:34:08;;;;;;;7.67;7.10;;;28.10;99.90;;;;;;5041877;28;20491;-72
2022/05/18 13:36:59;;;;;;;7.83;7.33;;;28.10;99.90;;;;;;5045174;28;20532;-72
2022/05/18 13:39:50;;;;;;;7.60;7.00;;;28.20;99.90;;;;;;5048836;28;20482;-72
2022/05/18 13:42:38;;;;;;;7.43;6.83;;;28.20;99.90;;;;;;5046938;28;20547;-71
2022/05/18 13:45:28;;;;;;;7.30;6.90;;;28.30;99.90;;;;;;5041018;28;20815;-71
2022/05/18 13:48:17;;;;;;;8.07;7.47;;;28.40;99.90;;;;;;5045234;28;20451;-72
2022/05/18 13:51:32;;;;;;;7.70;7.00;;;28.60;99.90;;;;;;5041384;28;20544;-72
2022/05/18 13:54:24;;;;;;;7.33;6.73;;;28.60;99.90;;;;;;5045534;28;20510;-72
2022/05/18 13:57:22;;;;;;;6.83;6.33;;;28.60;99.90;;;;;;5048180;28;20486;-72
2022/05/18 14:00:23;;;;;;;7.80;7.20;;;28.70;99.90;;;;;;5048804;28;20566;-72
2022/05/18 14:03:15;;;;;;;6.87;6.27;;;28.90;99.90;;;;;;5046004;28;21053;-72
2022/05/18 14:06:11;;;;;;;7.43;6.93;;;29.00;99.90;;;;;;5047761;28;20486;-70
2022/05/18 14:09:18;;;;;;;7.10;6.70;;;29.10;99.90;;;;;;5045124;28;20451;-69
2022/05/18 14:12:12;;;;;;;6.47;5.77;;;29.30;99.90;;;;;;5029356;28;20538;-70
2022/05/18 14:15:19;;;;;;;6.77;6.30;;;29.40;99.90;;;;;;5041022;28;20482;-70
2022/05/18 14:18:15;;;;;;;7.10;6.50;;;29.30;99.90;;;;;;5038676;28;20890;-70
2022/05/18 14:21:24;;;;;;;7.13;6.43;;;29.30;99.90;;;;;;5051693;28;20474;-69
2022/05/18 14:24:16;;;;;;;6.90;6.43;;;29.40;99.90;;;;;;5043232;28;20479;-69
2022/05/18 14:27:10;;;;;;;6.70;6.20;;;29.50;99.90;;;;;;5051189;28;20561;-70
2022/05/18 14:30:02;;;;;;;6.80;6.30;;;29.70;99.90;;;;;;5050763;28;20522;-69
2022/05/18 14:33:06;;;;;;;5.80;5.40;;;30.20;99.90;;;;;;5047534;28;20478;-70
2022/05/18 14:35:55;;;;;;;5.43;5.03;;;30.60;99.90;;;;;;5049428;28;20624;-69
2022/05/18 14:38:50;;;;;;;4.87;4.60;;;30.80;99.90;;;;;;5046872;28;20532;-70
2022/05/18 14:41:42;;;;;;;4.43;4.03;;;30.80;99.90;;;;;;5047990;28;20490;-70
2022/05/18 14:44:51;;;;;;;3.83;3.63;;;30.80;99.90;;;;;;5045228;28;20477;-70
2022/05/18 14:47:48;;;;;;;3.90;3.50;;;30.90;99.90;;;;;;5047147;28;20450;-70
2022/05/18 14:50:39;;;;;;;3.70;3.50;;;30.90;99.90;;;;;;5045059;28;20909;-70
2022/05/18 14:53:30;;;;;;;4.37;3.70;;;31.00;99.90;;;;;;5053653;28;20633;-69
2022/05/18 14:56:18;;;;;;;3.80;3.50;;;31.00;99.90;;;;;;5054711;28;20529;-70
2022/05/18 14:59:10;;;;;;;4.10;3.80;;;31.10;99.90;;;;;;5051579;28;20596;-69
2022/05/18 15:02:04;;;;;;;4.30;4.03;;;31.20;99.90;;;;;;5052752;28;20490;-70
2022/05/18 15:05:00;;;;;;;4.30;4.00;;;31.40;99.90;;;;;;5054477;28;21036;-70